sensor_id;sensor_type;location;lat;lon;timestamp;P1;durP1;ratioP1;P2;durP2;ratioP2
44973;SDS011;60981;50.720;11.342;2023-04-25T00:00:03;5.90;;;2.83;;
44973;SDS011;60981;50.720;11.342;2023-04-25T00:01:08;6.15;;;2.90;;
44973;SDS011;60981;50.720;11.342;2023-04-25T00:02:10;6.30;;;2.55;;
44973;SDS011;60981;50.720;11.342;2023-04-25T00:03:12;5.93;;;2.90;;
44973;SDS011;60981;50.720;11.342;2023-04-25T00:04:14;6.60;;;3.08;;
44973;SDS011;60981;50.720;11.342;2023-04-25T00:05:16;5.03;;;2.80;;
44973;SDS011;60981;50.720;11.342;2023-04-25T00:06:18;5.70;;;2.72;;
44973;SDS011;60981;50.720;11.342;2023-04-25T00:07:19;5.40;;;2.90;;
44973;SDS011;60981;50.720;11.342;2023-04-25T00:08:21;6.57;;;2.88;;
44973;SDS011;60981;50.720;11.342;2023-04-25T00:09:22;5.63;;;2.70;;
44973;SDS011;60981;50.720;11.342;2023-04-25T00:10:24;5.13;;;2.70;;
44973;SDS011;60981;50.720;11.342;2023-04-25T00:11:26;6.20;;;2.90;;
44973;SDS011;60981;50.720;11.342;2023-04-25T00:12:27;6.18;;;2.88;;
44973;SDS011;60981;50.720;11.342;2023-04-25T00:13:32;5.68;;;2.97;;
44973;SDS011;60981;50.720;11.342;2023-04-25T00:14:33;6.43;;;3.50;;
44973;SDS011;60981;50.720;11.342;2023-04-25T00:15:35;6.30;;;3.20;;
44973;SDS011;60981;50.720;11.342;2023-04-25T00:16:39;6.72;;;3.20;;
44973;SDS011;60981;50.720;11.342;2023-04-25T00:17:42;6.82;;;3.38;;
44973;SDS011;60981;50.720;11.342;2023-04-25T00:18:44;6.07;;;3.33;;
44973;SDS011;60981;50.720;11.342;2023-04-25T00:19:48;8.15;;;3.60;;
44973;SDS011;60981;50.720;11.342;2023-04-25T00:20:49;6.60;;;3.10;;
44973;SDS011;60981;50.720;11.342;2023-04-25T00:21:51;6.93;;;3.40;;
44973;SDS011;60981;50.720;11.342;2023-04-25T00:22:53;6.20;;;3.35;;
44973;SDS011;60981;50.720;11.342;2023-04-25T00:23:55;7.55;;;3.60;;
44973;SDS011;60981;50.720;11.342;2023-04-25T00:24:57;7.22;;;3.78;;
44973;SDS011;60981;50.720;11.342;2023-04-25T00:26:01;5.78;;;3.15;;
44973;SDS011;60981;50.720;11.342;2023-04-25T00:27:03;5.70;;;3.30;;
44973;SDS011;60981;50.720;11.342;2023-04-25T00:28:05;5.88;;;3.03;;
44973;SDS011;60981;50.720;11.342;2023-04-25T00:29:06;6.93;;;3.20;;
44973;SDS011;60981;50.720;11.342;2023-04-25T00:30:08;5.15;;;3.20;;
44973;SDS011;60981;50.720;11.342;2023-04-25T00:31:10;7.43;;;3.40;;
44973;SDS011;60981;50.720;11.342;2023-04-25T00:32:12;5.70;;;3.25;;
44973;SDS011;60981;50.720;11.342;2023-04-25T00:33:13;5.82;;;2.92;;
44973;SDS011;60981;50.720;11.342;2023-04-25T00:34:15;5.90;;;2.93;;
44973;SDS011;60981;50.720;11.342;2023-04-25T00:35:17;7.05;;;3.10;;
44973;SDS011;60981;50.720;11.342;2023-04-25T00:36:18;7.00;;;3.28;;
44973;SDS011;60981;50.720;11.342;2023-04-25T00:37:20;7.40;;;3.20;;
44973;SDS011;60981;50.720;11.342;2023-04-25T00:38:21;6.55;;;2.97;;
44973;SDS011;60981;50.720;11.342;2023-04-25T00:39:23;5.95;;;3.30;;
44973;SDS011;60981;50.720;11.342;2023-04-25T00:40:24;6.63;;;3.20;;
44973;SDS011;60981;50.720;11.342;2023-04-25T00:41:26;5.25;;;3.10;;
44973;SDS011;60981;50.720;11.342;2023-04-25T00:42:28;6.80;;;3.25;;
44973;SDS011;60981;50.720;11.342;2023-04-25T00:43:31;5.93;;;3.10;;
44973;SDS011;60981;50.720;11.342;2023-04-25T00:44:33;6.32;;;3.30;;
44973;SDS011;60981;50.720;11.342;2023-04-25T00:45:37;6.85;;;3.22;;
44973;SDS011;60981;50.720;11.342;2023-04-25T00:46:39;6.45;;;3.10;;
44973;SDS011;60981;50.720;11.342;2023-04-25T00:47:41;5.85;;;3.20;;
44973;SDS011;60981;50.720;11.342;2023-04-25T00:48:43;5.90;;;3.10;;
44973;SDS011;60981;50.720;11.342;2023-04-25T00:49:45;7.45;;;3.00;;
44973;SDS011;60981;50.720;11.342;2023-04-25T00:50:50;5.95;;;2.80;;
44973;SDS011;60981;50.720;11.342;2023-04-25T00:51:52;6.32;;;3.10;;
44973;SDS011;60981;50.720;11.342;2023-04-25T00:52:54;5.32;;;2.90;;
44973;SDS011;60981;50.720;11.342;2023-04-25T00:53:56;5.80;;;3.35;;
44973;SDS011;60981;50.720;11.342;2023-04-25T00:54:58;5.72;;;2.88;;
44973;SDS011;60981;50.720;11.342;2023-04-25T00:55:59;6.38;;;3.10;;
44973;SDS011;60981;50.720;11.342;2023-04-25T00:57:01;7.68;;;2.95;;
44973;SDS011;60981;50.720;11.342;2023-04-25T00:58:03;5.75;;;3.10;;
44973;SDS011;60981;50.720;11.342;2023-04-25T00:59:05;5.78;;;3.40;;
44973;SDS011;60981;50.720;11.342;2023-04-25T01:00:07;7.78;;;3.35;;
44973;SDS011;60981;50.720;11.342;2023-04-25T01:01:11;5.30;;;3.15;;
44973;SDS011;60981;50.720;11.342;2023-04-25T01:02:13;6.55;;;3.35;;
44973;SDS011;60981;50.720;11.342;2023-04-25T01:03:15;7.78;;;3.30;;
44973;SDS011;60981;50.720;11.342;2023-04-25T01:04:17;7.57;;;3.90;;
44973;SDS011;60981;50.720;11.342;2023-04-25T01:05:19;6.90;;;3.78;;
44973;SDS011;60981;50.720;11.342;2023-04-25T01:06:21;6.50;;;3.67;;
44973;SDS011;60981;50.720;11.342;2023-04-25T01:07:23;6.13;;;3.20;;
44973;SDS011;60981;50.720;11.342;2023-04-25T01:08:25;7.25;;;3.83;;
44973;SDS011;60981;50.720;11.342;2023-04-25T01:09:27;8.80;;;4.10;;
44973;SDS011;60981;50.720;11.342;2023-04-25T01:10:29;7.05;;;3.80;;
44973;SDS011;60981;50.720;11.342;2023-04-25T01:11:30;7.38;;;3.65;;
44973;SDS011;60981;50.720;11.342;2023-04-25T01:12:32;6.35;;;3.63;;
44973;SDS011;60981;50.720;11.342;2023-04-25T01:13:34;6.72;;;3.72;;
44973;SDS011;60981;50.720;11.342;2023-04-25T01:14:36;5.70;;;3.67;;
44973;SDS011;60981;50.720;11.342;2023-04-25T01:15:37;7.13;;;3.33;;
44973;SDS011;60981;50.720;11.342;2023-04-25T01:16:39;6.80;;;3.58;;
44973;SDS011;60981;50.720;11.342;2023-04-25T01:17:41;7.80;;;3.80;;
44973;SDS011;60981;50.720;11.342;2023-04-25T01:18:45;5.95;;;3.40;;
44973;SDS011;60981;50.720;11.342;2023-04-25T01:19:47;6.80;;;3.72;;
44973;SDS011;60981;50.720;11.342;2023-04-25T01:20:50;5.70;;;3.60;;
44973;SDS011;60981;50.720;11.342;2023-04-25T01:21:52;7.22;;;4.00;;
44973;SDS011;60981;50.720;11.342;2023-04-25T01:22:54;8.05;;;3.88;;
44973;SDS011;60981;50.720;11.342;2023-04-25T01:23:56;7.45;;;3.90;;
44973;SDS011;60981;50.720;11.342;2023-04-25T01:24:58;7.45;;;3.67;;
44973;SDS011;60981;50.720;11.342;2023-04-25T01:26:01;9.98;;;3.80;;
44973;SDS011;60981;50.720;11.342;2023-04-25T01:27:03;9.00;;;4.30;;
44973;SDS011;60981;50.720;11.342;2023-04-25T01:28:04;6.70;;;3.78;;
44973;SDS011;60981;50.720;11.342;2023-04-25T01:29:07;7.45;;;3.80;;
44973;SDS011;60981;50.720;11.342;2023-04-25T01:30:09;7.60;;;3.30;;
44973;SDS011;60981;50.720;11.342;2023-04-25T01:31:11;6.65;;;3.50;;
44973;SDS011;60981;50.720;11.342;2023-04-25T01:32:13;6.18;;;3.20;;
44973;SDS011;60981;50.720;11.342;2023-04-25T01:33:15;7.85;;;4.30;;
44973;SDS011;60981;50.720;11.342;2023-04-25T01:34:17;5.82;;;3.60;;
44973;SDS011;60981;50.720;11.342;2023-04-25T01:35:19;5.72;;;3.70;;
44973;SDS011;60981;50.720;11.342;2023-04-25T01:36:20;7.22;;;3.50;;
44973;SDS011;60981;50.720;11.342;2023-04-25T01:37:22;7.25;;;3.83;;
44973;SDS011;60981;50.720;11.342;2023-04-25T01:38:24;6.05;;;3.70;;
44973;SDS011;60981;50.720;11.342;2023-04-25T01:39:26;5.97;;;3.80;;
44973;SDS011;60981;50.720;11.342;2023-04-25T01:40:27;7.97;;;4.20;;
44973;SDS011;60981;50.720;11.342;2023-04-25T01:41:29;6.75;;;3.67;;
44973;SDS011;60981;50.720;11.342;2023-04-25T01:42:31;7.82;;;3.70;;
44973;SDS011;60981;50.720;11.342;2023-04-25T01:43:33;6.57;;;3.90;;
44973;SDS011;60981;50.720;11.342;2023-04-25T01:44:35;6.68;;;3.83;;
44973;SDS011;60981;50.720;11.342;2023-04-25T01:45:37;7.55;;;3.83;;
44973;SDS011;60981;50.720;11.342;2023-04-25T01:46:41;7.28;;;3.95;;
44973;SDS011;60981;50.720;11.342;2023-04-25T01:47:43;5.80;;;3.70;;
44973;SDS011;60981;50.720;11.342;2023-04-25T01:49:49;6.63;;;3.38;;
44973;SDS011;60981;50.720;11.342;2023-04-25T01:50:51;7.72;;;3.50;;
44973;SDS011;60981;50.720;11.342;2023-04-25T01:51:53;7.13;;;3.70;;
44973;SDS011;60981;50.720;11.342;2023-04-25T01:52:54;8.88;;;4.32;;
44973;SDS011;60981;50.720;11.342;2023-04-25T01:53:57;8.90;;;3.63;;
44973;SDS011;60981;50.720;11.342;2023-04-25T01:55:01;6.90;;;3.88;;
44973;SDS011;60981;50.720;11.342;2023-04-25T01:56:03;8.25;;;3.88;;
44973;SDS011;60981;50.720;11.342;2023-04-25T01:57:04;7.30;;;3.65;;
44973;SDS011;60981;50.720;11.342;2023-04-25T01:58:06;8.27;;;3.53;;
44973;SDS011;60981;50.720;11.342;2023-04-25T01:59:13;8.43;;;4.05;;
44973;SDS011;60981;50.720;11.342;2023-04-25T02:00:15;9.00;;;3.95;;
44973;SDS011;60981;50.720;11.342;2023-04-25T02:01:17;7.82;;;4.10;;
44973;SDS011;60981;50.720;11.342;2023-04-25T02:02:18;8.00;;;3.60;;
44973;SDS011;60981;50.720;11.342;2023-04-25T02:03:20;6.65;;;3.85;;
44973;SDS011;60981;50.720;11.342;2023-04-25T02:04:22;8.93;;;3.90;;
44973;SDS011;60981;50.720;11.342;2023-04-25T02:05:24;8.90;;;4.13;;
44973;SDS011;60981;50.720;11.342;2023-04-25T02:06:25;8.48;;;3.90;;
44973;SDS011;60981;50.720;11.342;2023-04-25T02:07:27;9.20;;;4.10;;
44973;SDS011;60981;50.720;11.342;2023-04-25T02:08:28;9.25;;;4.13;;
44973;SDS011;60981;50.720;11.342;2023-04-25T02:09:31;6.88;;;3.40;;
44973;SDS011;60981;50.720;11.342;2023-04-25T02:10:33;9.15;;;3.75;;
44973;SDS011;60981;50.720;11.342;2023-04-25T02:11:35;7.00;;;3.67;;
44973;SDS011;60981;50.720;11.342;2023-04-25T02:12:36;8.30;;;3.97;;
44973;SDS011;60981;50.720;11.342;2023-04-25T02:13:38;5.70;;;3.53;;
44973;SDS011;60981;50.720;11.342;2023-04-25T02:14:40;6.07;;;3.58;;
44973;SDS011;60981;50.720;11.342;2023-04-25T02:15:41;6.72;;;3.80;;
44973;SDS011;60981;50.720;11.342;2023-04-25T02:16:43;7.90;;;3.67;;
44973;SDS011;60981;50.720;11.342;2023-04-25T02:17:48;7.35;;;3.80;;
44973;SDS011;60981;50.720;11.342;2023-04-25T02:18:50;10.68;;;3.85;;
44973;SDS011;60981;50.720;11.342;2023-04-25T02:19:54;8.48;;;3.90;;
44973;SDS011;60981;50.720;11.342;2023-04-25T02:20:55;8.73;;;4.50;;
44973;SDS011;60981;50.720;11.342;2023-04-25T02:21:57;8.43;;;4.40;;
44973;SDS011;60981;50.720;11.342;2023-04-25T02:22:59;7.95;;;3.83;;
44973;SDS011;60981;50.720;11.342;2023-04-25T02:24:01;6.65;;;3.80;;
44973;SDS011;60981;50.720;11.342;2023-04-25T02:25:03;12.85;;;4.07;;
44973;SDS011;60981;50.720;11.342;2023-04-25T02:26:06;8.95;;;4.18;;
44973;SDS011;60981;50.720;11.342;2023-04-25T02:27:07;7.40;;;4.15;;
44973;SDS011;60981;50.720;11.342;2023-04-25T02:28:09;6.57;;;3.85;;
44973;SDS011;60981;50.720;11.342;2023-04-25T02:29:10;7.63;;;4.32;;
44973;SDS011;60981;50.720;11.342;2023-04-25T02:30:12;7.15;;;4.22;;
44973;SDS011;60981;50.720;11.342;2023-04-25T02:31:14;6.55;;;3.45;;
44973;SDS011;60981;50.720;11.342;2023-04-25T02:32:16;7.45;;;4.18;;
44973;SDS011;60981;50.720;11.342;2023-04-25T02:33:17;9.82;;;3.92;;
44973;SDS011;60981;50.720;11.342;2023-04-25T02:34:19;7.13;;;3.85;;
44973;SDS011;60981;50.720;11.342;2023-04-25T02:35:21;6.85;;;4.47;;
44973;SDS011;60981;50.720;11.342;2023-04-25T02:36:22;7.80;;;4.00;;
44973;SDS011;60981;50.720;11.342;2023-04-25T02:37:25;6.18;;;3.97;;
44973;SDS011;60981;50.720;11.342;2023-04-25T02:38:26;8.00;;;4.53;;
44973;SDS011;60981;50.720;11.342;2023-04-25T02:39:28;7.57;;;4.10;;
44973;SDS011;60981;50.720;11.342;2023-04-25T02:40:30;6.95;;;4.40;;
44973;SDS011;60981;50.720;11.342;2023-04-25T02:41:31;9.40;;;3.97;;
44973;SDS011;60981;50.720;11.342;2023-04-25T02:42:33;8.07;;;3.90;;
44973;SDS011;60981;50.720;11.342;2023-04-25T02:43:35;8.10;;;4.25;;
44973;SDS011;60981;50.720;11.342;2023-04-25T02:44:36;7.75;;;4.18;;
44973;SDS011;60981;50.720;11.342;2023-04-25T02:45:38;6.53;;;4.00;;
44973;SDS011;60981;50.720;11.342;2023-04-25T02:46:40;10.02;;;4.30;;
44973;SDS011;60981;50.720;11.342;2023-04-25T02:47:41;8.55;;;4.72;;
44973;SDS011;60981;50.720;11.342;2023-04-25T02:48:43;7.28;;;4.20;;
44973;SDS011;60981;50.720;11.342;2023-04-25T02:49:45;7.18;;;3.92;;
44973;SDS011;60981;50.720;11.342;2023-04-25T02:50:47;7.30;;;4.45;;
44973;SDS011;60981;50.720;11.342;2023-04-25T02:51:49;9.45;;;4.18;;
44973;SDS011;60981;50.720;11.342;2023-04-25T02:52:50;7.90;;;4.38;;
44973;SDS011;60981;50.720;11.342;2023-04-25T02:53:52;7.30;;;4.15;;
44973;SDS011;60981;50.720;11.342;2023-04-25T02:54:53;8.35;;;4.35;;
44973;SDS011;60981;50.720;11.342;2023-04-25T02:55:55;8.38;;;4.47;;
44973;SDS011;60981;50.720;11.342;2023-04-25T02:56:59;9.80;;;4.40;;
44973;SDS011;60981;50.720;11.342;2023-04-25T02:58:02;9.25;;;4.32;;
44973;SDS011;60981;50.720;11.342;2023-04-25T02:59:03;8.40;;;4.45;;
44973;SDS011;60981;50.720;11.342;2023-04-25T03:00:05;9.20;;;4.88;;
44973;SDS011;60981;50.720;11.342;2023-04-25T03:01:08;8.18;;;4.03;;
44973;SDS011;60981;50.720;11.342;2023-04-25T03:02:10;10.80;;;4.40;;
44973;SDS011;60981;50.720;11.342;2023-04-25T03:03:11;8.70;;;4.38;;
44973;SDS011;60981;50.720;11.342;2023-04-25T03:04:13;8.60;;;5.00;;
44973;SDS011;60981;50.720;11.342;2023-04-25T03:05:15;7.47;;;4.15;;
44973;SDS011;60981;50.720;11.342;2023-04-25T03:06:17;7.38;;;4.32;;
44973;SDS011;60981;50.720;11.342;2023-04-25T03:07:19;6.32;;;3.70;;
44973;SDS011;60981;50.720;11.342;2023-04-25T03:08:21;8.45;;;4.53;;
44973;SDS011;60981;50.720;11.342;2023-04-25T03:09:22;8.73;;;3.97;;
44973;SDS011;60981;50.720;11.342;2023-04-25T03:10:24;10.25;;;4.35;;
44973;SDS011;60981;50.720;11.342;2023-04-25T03:11:25;6.95;;;4.20;;
44973;SDS011;60981;50.720;11.342;2023-04-25T03:12:27;8.23;;;4.97;;
44973;SDS011;60981;50.720;11.342;2023-04-25T03:13:29;8.13;;;4.07;;
44973;SDS011;60981;50.720;11.342;2023-04-25T03:14:31;7.95;;;4.45;;
44973;SDS011;60981;50.720;11.342;2023-04-25T03:15:32;7.60;;;4.43;;
44973;SDS011;60981;50.720;11.342;2023-04-25T03:16:34;8.05;;;4.03;;
44973;SDS011;60981;50.720;11.342;2023-04-25T03:17:36;9.45;;;5.25;;
44973;SDS011;60981;50.720;11.342;2023-04-25T03:18:37;7.38;;;3.90;;
44973;SDS011;60981;50.720;11.342;2023-04-25T03:19:39;8.55;;;4.25;;
44973;SDS011;60981;50.720;11.342;2023-04-25T03:20:41;8.27;;;4.85;;
44973;SDS011;60981;50.720;11.342;2023-04-25T03:21:43;7.47;;;4.35;;
44973;SDS011;60981;50.720;11.342;2023-04-25T03:22:45;8.18;;;4.72;;
44973;SDS011;60981;50.720;11.342;2023-04-25T03:23:46;10.50;;;4.63;;
44973;SDS011;60981;50.720;11.342;2023-04-25T03:24:49;8.98;;;3.72;;
44973;SDS011;60981;50.720;11.342;2023-04-25T03:25:50;8.15;;;4.13;;
44973;SDS011;60981;50.720;11.342;2023-04-25T03:26:52;8.45;;;4.28;;
44973;SDS011;60981;50.720;11.342;2023-04-25T03:27:54;8.90;;;4.47;;
44973;SDS011;60981;50.720;11.342;2023-04-25T03:28:56;8.10;;;4.35;;
44973;SDS011;60981;50.720;11.342;2023-04-25T03:29:58;8.18;;;4.38;;
44973;SDS011;60981;50.720;11.342;2023-04-25T03:31:00;7.40;;;4.40;;
44973;SDS011;60981;50.720;11.342;2023-04-25T03:32:01;8.63;;;4.65;;
44973;SDS011;60981;50.720;11.342;2023-04-25T03:33:03;8.68;;;3.97;;
44973;SDS011;60981;50.720;11.342;2023-04-25T03:34:05;10.43;;;4.47;;
44973;SDS011;60981;50.720;11.342;2023-04-25T03:35:06;7.85;;;3.80;;
44973;SDS011;60981;50.720;11.342;2023-04-25T03:36:08;8.15;;;4.35;;
44973;SDS011;60981;50.720;11.342;2023-04-25T03:37:11;6.32;;;4.10;;
44973;SDS011;60981;50.720;11.342;2023-04-25T03:38:12;6.95;;;4.15;;
44973;SDS011;60981;50.720;11.342;2023-04-25T03:39:14;12.35;;;4.45;;
44973;SDS011;60981;50.720;11.342;2023-04-25T03:40:15;7.68;;;4.45;;
44973;SDS011;60981;50.720;11.342;2023-04-25T03:41:17;9.10;;;4.22;;
44973;SDS011;60981;50.720;11.342;2023-04-25T03:42:18;7.45;;;4.15;;
44973;SDS011;60981;50.720;11.342;2023-04-25T03:43:21;6.97;;;4.47;;
44973;SDS011;60981;50.720;11.342;2023-04-25T03:44:23;7.00;;;4.40;;
44973;SDS011;60981;50.720;11.342;2023-04-25T03:45:25;6.82;;;4.15;;
44973;SDS011;60981;50.720;11.342;2023-04-25T03:46:27;6.10;;;4.00;;
44973;SDS011;60981;50.720;11.342;2023-04-25T03:47:29;6.68;;;3.97;;
44973;SDS011;60981;50.720;11.342;2023-04-25T03:48:31;8.70;;;4.47;;
44973;SDS011;60981;50.720;11.342;2023-04-25T03:49:33;6.50;;;3.97;;
44973;SDS011;60981;50.720;11.342;2023-04-25T03:50:35;9.93;;;3.83;;
44973;SDS011;60981;50.720;11.342;2023-04-25T03:51:37;7.78;;;4.13;;
44973;SDS011;60981;50.720;11.342;2023-04-25T03:52:38;6.85;;;4.53;;
44973;SDS011;60981;50.720;11.342;2023-04-25T03:53:40;9.10;;;4.90;;
44973;SDS011;60981;50.720;11.342;2023-04-25T03:54:41;8.98;;;4.82;;
44973;SDS011;60981;50.720;11.342;2023-04-25T03:55:43;7.03;;;4.43;;
44973;SDS011;60981;50.720;11.342;2023-04-25T03:56:45;7.25;;;4.50;;
44973;SDS011;60981;50.720;11.342;2023-04-25T03:57:47;7.00;;;4.20;;
44973;SDS011;60981;50.720;11.342;2023-04-25T03:58:48;6.88;;;3.80;;
44973;SDS011;60981;50.720;11.342;2023-04-25T03:59:50;7.43;;;4.40;;
44973;SDS011;60981;50.720;11.342;2023-04-25T04:00:51;7.85;;;4.15;;
44973;SDS011;60981;50.720;11.342;2023-04-25T04:01:53;7.15;;;4.20;;
44973;SDS011;60981;50.720;11.342;2023-04-25T04:02:55;11.48;;;4.35;;
44973;SDS011;60981;50.720;11.342;2023-04-25T04:03:57;8.18;;;4.18;;
44973;SDS011;60981;50.720;11.342;2023-04-25T04:04:59;8.52;;;3.90;;
44973;SDS011;60981;50.720;11.342;2023-04-25T04:06:02;7.68;;;4.20;;
44973;SDS011;60981;50.720;11.342;2023-04-25T04:07:05;11.90;;;4.40;;
44973;SDS011;60981;50.720;11.342;2023-04-25T04:08:07;7.50;;;4.63;;
44973;SDS011;60981;50.720;11.342;2023-04-25T04:09:08;6.93;;;4.07;;
44973;SDS011;60981;50.720;11.342;2023-04-25T04:10:12;7.45;;;4.50;;
44973;SDS011;60981;50.720;11.342;2023-04-25T04:11:13;9.23;;;4.22;;
44973;SDS011;60981;50.720;11.342;2023-04-25T04:12:15;8.55;;;3.95;;
44973;SDS011;60981;50.720;11.342;2023-04-25T04:13:17;11.93;;;4.65;;
44973;SDS011;60981;50.720;11.342;2023-04-25T04:14:18;6.90;;;4.30;;
44973;SDS011;60981;50.720;11.342;2023-04-25T04:15:20;7.43;;;3.95;;
44973;SDS011;60981;50.720;11.342;2023-04-25T04:16:22;9.57;;;4.00;;
44973;SDS011;60981;50.720;11.342;2023-04-25T04:17:24;6.65;;;4.13;;
44973;SDS011;60981;50.720;11.342;2023-04-25T04:18:26;8.18;;;3.80;;
44973;SDS011;60981;50.720;11.342;2023-04-25T04:19:28;8.95;;;4.13;;
44973;SDS011;60981;50.720;11.342;2023-04-25T04:20:29;7.93;;;3.60;;
44973;SDS011;60981;50.720;11.342;2023-04-25T04:21:34;7.28;;;3.95;;
44973;SDS011;60981;50.720;11.342;2023-04-25T04:22:36;7.20;;;3.55;;
44973;SDS011;60981;50.720;11.342;2023-04-25T04:23:37;6.15;;;3.58;;
44973;SDS011;60981;50.720;11.342;2023-04-25T04:24:40;7.68;;;3.75;;
44973;SDS011;60981;50.720;11.342;2023-04-25T04:25:41;6.90;;;3.10;;
44973;SDS011;60981;50.720;11.342;2023-04-25T04:26:43;5.75;;;3.10;;
44973;SDS011;60981;50.720;11.342;2023-04-25T04:27:46;6.93;;;3.80;;
44973;SDS011;60981;50.720;11.342;2023-04-25T04:28:50;8.13;;;3.22;;
44973;SDS011;60981;50.720;11.342;2023-04-25T04:29:53;7.28;;;3.50;;
44973;SDS011;60981;50.720;11.342;2023-04-25T04:30:54;10.60;;;3.17;;
44973;SDS011;60981;50.720;11.342;2023-04-25T04:31:56;6.78;;;3.40;;
44973;SDS011;60981;50.720;11.342;2023-04-25T04:32:59;9.50;;;3.78;;
44973;SDS011;60981;50.720;11.342;2023-04-25T04:34:02;8.38;;;3.22;;
44973;SDS011;60981;50.720;11.342;2023-04-25T04:35:05;5.55;;;3.05;;
44973;SDS011;60981;50.720;11.342;2023-04-25T04:36:07;11.70;;;3.60;;
44973;SDS011;60981;50.720;11.342;2023-04-25T04:37:09;11.35;;;2.97;;
44973;SDS011;60981;50.720;11.342;2023-04-25T04:38:11;7.85;;;3.47;;
44973;SDS011;60981;50.720;11.342;2023-04-25T04:39:13;8.02;;;3.45;;
44973;SDS011;60981;50.720;11.342;2023-04-25T04:40:15;7.18;;;3.40;;
44973;SDS011;60981;50.720;11.342;2023-04-25T04:41:17;9.43;;;3.13;;
44973;SDS011;60981;50.720;11.342;2023-04-25T04:42:20;9.07;;;3.30;;
44973;SDS011;60981;50.720;11.342;2023-04-25T04:43:22;6.70;;;3.25;;
44973;SDS011;60981;50.720;11.342;2023-04-25T04:44:24;16.10;;;3.50;;
44973;SDS011;60981;50.720;11.342;2023-04-25T04:45:26;8.45;;;3.08;;
44973;SDS011;60981;50.720;11.342;2023-04-25T04:46:29;8.43;;;3.17;;
44973;SDS011;60981;50.720;11.342;2023-04-25T04:47:31;5.80;;;3.03;;
44973;SDS011;60981;50.720;11.342;2023-04-25T04:48:34;6.85;;;3.58;;
44973;SDS011;60981;50.720;11.342;2023-04-25T04:49:35;7.22;;;3.17;;
44973;SDS011;60981;50.720;11.342;2023-04-25T04:50:37;6.75;;;3.55;;
44973;SDS011;60981;50.720;11.342;2023-04-25T04:51:40;6.30;;;3.63;;
44973;SDS011;60981;50.720;11.342;2023-04-25T04:52:48;8.13;;;3.47;;
44973;SDS011;60981;50.720;11.342;2023-04-25T04:53:49;5.78;;;2.90;;
44973;SDS011;60981;50.720;11.342;2023-04-25T04:54:51;10.20;;;3.67;;
44973;SDS011;60981;50.720;11.342;2023-04-25T04:55:53;7.28;;;3.15;;
44973;SDS011;60981;50.720;11.342;2023-04-25T04:56:55;6.38;;;3.15;;
44973;SDS011;60981;50.720;11.342;2023-04-25T04:57:57;9.10;;;3.33;;
44973;SDS011;60981;50.720;11.342;2023-04-25T04:58:59;9.88;;;3.70;;
44973;SDS011;60981;50.720;11.342;2023-04-25T05:00:01;7.65;;;3.45;;
44973;SDS011;60981;50.720;11.342;2023-04-25T05:01:06;7.25;;;3.35;;
44973;SDS011;60981;50.720;11.342;2023-04-25T05:02:08;8.40;;;3.78;;
44973;SDS011;60981;50.720;11.342;2023-04-25T05:03:10;7.95;;;3.40;;
44973;SDS011;60981;50.720;11.342;2023-04-25T05:04:13;8.85;;;3.50;;
44973;SDS011;60981;50.720;11.342;2023-04-25T05:05:15;6.03;;;3.03;;
44973;SDS011;60981;50.720;11.342;2023-04-25T05:06:17;7.90;;;3.30;;
44973;SDS011;60981;50.720;11.342;2023-04-25T05:07:19;10.07;;;3.38;;
44973;SDS011;60981;50.720;11.342;2023-04-25T05:08:21;7.60;;;3.60;;
44973;SDS011;60981;50.720;11.342;2023-04-25T05:09:22;7.10;;;3.88;;
44973;SDS011;60981;50.720;11.342;2023-04-25T05:10:27;6.75;;;3.35;;
44973;SDS011;60981;50.720;11.342;2023-04-25T05:11:28;9.48;;;3.58;;
44973;SDS011;60981;50.720;11.342;2023-04-25T05:12:30;8.27;;;3.55;;
44973;SDS011;60981;50.720;11.342;2023-04-25T05:13:31;4.85;;;2.78;;
44973;SDS011;60981;50.720;11.342;2023-04-25T05:14:33;8.20;;;3.53;;
44973;SDS011;60981;50.720;11.342;2023-04-25T05:15:35;7.18;;;3.53;;
44973;SDS011;60981;50.720;11.342;2023-04-25T05:16:36;10.10;;;3.33;;
44973;SDS011;60981;50.720;11.342;2023-04-25T05:17:38;6.90;;;3.28;;
44973;SDS011;60981;50.720;11.342;2023-04-25T05:18:40;7.53;;;3.20;;
44973;SDS011;60981;50.720;11.342;2023-04-25T05:19:42;7.00;;;3.20;;
44973;SDS011;60981;50.720;11.342;2023-04-25T05:20:44;7.30;;;3.30;;
44973;SDS011;60981;50.720;11.342;2023-04-25T05:21:46;7.10;;;3.55;;
44973;SDS011;60981;50.720;11.342;2023-04-25T05:22:47;6.68;;;3.08;;
44973;SDS011;60981;50.720;11.342;2023-04-25T05:23:49;8.55;;;3.65;;
44973;SDS011;60981;50.720;11.342;2023-04-25T05:24:51;10.77;;;3.67;;
44973;SDS011;60981;50.720;11.342;2023-04-25T05:25:56;9.88;;;3.88;;
44973;SDS011;60981;50.720;11.342;2023-04-25T05:26:57;8.85;;;3.67;;
44973;SDS011;60981;50.720;11.342;2023-04-25T05:27:59;6.85;;;3.45;;
44973;SDS011;60981;50.720;11.342;2023-04-25T05:29:01;7.07;;;3.00;;
44973;SDS011;60981;50.720;11.342;2023-04-25T05:30:03;6.88;;;3.35;;
44973;SDS011;60981;50.720;11.342;2023-04-25T05:31:06;7.18;;;3.25;;
44973;SDS011;60981;50.720;11.342;2023-04-25T05:32:08;10.35;;;3.83;;
44973;SDS011;60981;50.720;11.342;2023-04-25T05:33:10;8.45;;;3.55;;
44973;SDS011;60981;50.720;11.342;2023-04-25T05:34:12;6.88;;;3.58;;
44973;SDS011;60981;50.720;11.342;2023-04-25T05:35:13;7.90;;;3.42;;
44973;SDS011;60981;50.720;11.342;2023-04-25T05:36:15;8.82;;;3.88;;
44973;SDS011;60981;50.720;11.342;2023-04-25T05:37:17;13.27;;;6.90;;
44973;SDS011;60981;50.720;11.342;2023-04-25T05:38:18;10.13;;;3.90;;
44973;SDS011;60981;50.720;11.342;2023-04-25T05:39:20;11.13;;;3.85;;
44973;SDS011;60981;50.720;11.342;2023-04-25T05:40:22;7.10;;;3.35;;
44973;SDS011;60981;50.720;11.342;2023-04-25T05:41:24;8.75;;;4.00;;
44973;SDS011;60981;50.720;11.342;2023-04-25T05:42:25;9.52;;;4.15;;
44973;SDS011;60981;50.720;11.342;2023-04-25T05:43:27;8.27;;;4.13;;
44973;SDS011;60981;50.720;11.342;2023-04-25T05:44:29;8.52;;;3.78;;
44973;SDS011;60981;50.720;11.342;2023-04-25T05:45:31;7.60;;;3.35;;
44973;SDS011;60981;50.720;11.342;2023-04-25T05:46:33;5.70;;;3.15;;
44973;SDS011;60981;50.720;11.342;2023-04-25T05:47:35;9.73;;;4.30;;
44973;SDS011;60981;50.720;11.342;2023-04-25T05:48:37;8.15;;;3.55;;
44973;SDS011;60981;50.720;11.342;2023-04-25T05:49:38;7.97;;;3.90;;
44973;SDS011;60981;50.720;11.342;2023-04-25T05:50:40;7.10;;;3.25;;
44973;SDS011;60981;50.720;11.342;2023-04-25T05:51:41;5.50;;;3.22;;
44973;SDS011;60981;50.720;11.342;2023-04-25T05:52:43;9.35;;;4.50;;
44973;SDS011;60981;50.720;11.342;2023-04-25T05:53:45;7.53;;;3.40;;
44973;SDS011;60981;50.720;11.342;2023-04-25T05:54:46;7.65;;;3.83;;
44973;SDS011;60981;50.720;11.342;2023-04-25T05:55:48;7.68;;;4.10;;
44973;SDS011;60981;50.720;11.342;2023-04-25T05:56:49;8.93;;;4.00;;
44973;SDS011;60981;50.720;11.342;2023-04-25T05:57:51;8.85;;;3.90;;
44973;SDS011;60981;50.720;11.342;2023-04-25T05:58:53;9.05;;;4.00;;
44973;SDS011;60981;50.720;11.342;2023-04-25T05:59:54;7.10;;;4.00;;
44973;SDS011;60981;50.720;11.342;2023-04-25T06:00:56;8.75;;;4.03;;
44973;SDS011;60981;50.720;11.342;2023-04-25T06:01:58;8.07;;;3.80;;
44973;SDS011;60981;50.720;11.342;2023-04-25T06:02:59;8.40;;;3.85;;
44973;SDS011;60981;50.720;11.342;2023-04-25T06:04:01;8.80;;;4.47;;
44973;SDS011;60981;50.720;11.342;2023-04-25T06:05:04;7.70;;;3.70;;
44973;SDS011;60981;50.720;11.342;2023-04-25T06:06:06;9.32;;;4.05;;
44973;SDS011;60981;50.720;11.342;2023-04-25T06:07:08;6.45;;;3.40;;
44973;SDS011;60981;50.720;11.342;2023-04-25T06:08:09;9.55;;;4.07;;